createdAt,value
2018-05-04T00:01:01.660Z,9.60
2018-05-04T00:05:04.938Z,9.40
2018-05-04T00:09:07.470Z,9.40
2018-05-04T00:13:09.987Z,9.30
2018-05-04T00:17:13.295Z,9.20
2018-05-04T00:21:15.850Z,9.10
2018-05-04T00:25:18.451Z,9.00
2018-05-04T00:29:21.746Z,8.80
2018-05-04T00:33:25.347Z,8.70
2018-05-04T00:37:27.863Z,8.70
2018-05-04T00:41:30.463Z,8.80
2018-05-04T00:45:32.991Z,8.80
2018-05-04T00:49:35.637Z,8.70
2018-05-04T00:53:50.096Z,8.60
2018-05-04T00:57:59.403Z,8.60
2018-05-04T01:02:01.910Z,8.50
2018-05-04T01:06:04.452Z,8.50
2018-05-04T01:10:07.734Z,8.20
2018-05-04T01:14:10.278Z,8.10
2018-05-04T01:18:13.594Z,8.30
2018-05-04T01:22:16.263Z,8.20
2018-05-04T01:26:30.558Z,8.20
2018-05-04T01:30:33.399Z,8.20
2018-05-04T01:34:35.927Z,8.20
2018-05-04T01:38:44.731Z,8.20
2018-05-04T01:42:47.244Z,8.10
2018-05-04T01:46:49.786Z,8.00
2018-05-04T01:50:53.064Z,7.90
2018-05-04T01:54:55.624Z,7.90
2018-05-04T01:58:58.143Z,7.90
2018-05-04T02:03:00.695Z,7.70
2018-05-04T02:07:04.224Z,7.70
2018-05-04T02:11:06.783Z,7.70
2018-05-04T02:15:09.295Z,7.80
2018-05-04T02:19:11.842Z,7.80
2018-05-04T02:23:15.334Z,7.60
2018-05-04T02:27:17.874Z,7.50
2018-05-04T02:31:20.386Z,7.50
2018-05-04T02:35:22.966Z,7.50
2018-05-04T02:39:26.478Z,7.50
2018-05-04T02:43:29.166Z,7.50
2018-05-04T02:47:31.684Z,7.40
2018-05-04T02:51:34.247Z,7.30
2018-05-04T02:55:37.723Z,7.40
2018-05-04T02:59:40.262Z,7.30
2018-05-04T03:03:42.770Z,7.20
2018-05-04T03:07:45.312Z,7.10
2018-05-04T03:11:47.826Z,7.10
2018-05-04T03:15:51.237Z,7.10
2018-05-04T03:19:54.542Z,7.00
2018-05-04T03:23:57.088Z,6.90
2018-05-04T03:27:59.595Z,7.00
2018-05-04T03:32:02.517Z,7.10
2018-05-04T03:36:05.030Z,7.10
2018-05-04T03:40:07.566Z,7.10
2018-05-04T03:44:10.081Z,7.20
2018-05-04T03:48:12.628Z,7.00
2018-05-04T03:52:15.255Z,7.00
2018-05-04T03:56:18.233Z,7.10
2018-05-04T04:00:32.687Z,6.90
2018-05-04T04:04:35.240Z,6.90
2018-05-04T04:08:37.771Z,6.90
2018-05-04T04:12:40.715Z,7.00
2018-05-04T04:16:43.180Z,7.00
2018-05-04T04:20:45.725Z,6.80
2018-05-04T04:24:48.236Z,6.60
2018-05-04T04:28:51.136Z,6.70
2018-05-04T04:32:53.650Z,6.80
2018-05-04T04:36:56.283Z,6.80
2018-05-04T04:40:58.815Z,6.80
2018-05-04T04:45:01.356Z,6.80
2018-05-04T04:49:03.888Z,7.00
2018-05-04T04:53:06.444Z,7.10
2018-05-04T04:57:08.980Z,7.20
2018-05-04T05:01:11.539Z,7.20
2018-05-04T05:05:14.090Z,7.40
2018-05-04T05:09:16.632Z,7.40
2018-05-04T05:13:19.156Z,7.30
2018-05-04T05:17:21.723Z,7.30
2018-05-04T05:21:24.995Z,7.60
2018-05-04T05:25:27.541Z,7.60
2018-05-04T05:29:30.107Z,7.70
2018-05-04T05:33:33.491Z,8.00
2018-05-04T05:37:36.014Z,8.00
2018-05-04T05:41:38.660Z,8.30
2018-05-04T05:45:41.178Z,8.50
2018-05-04T05:49:43.723Z,8.60
2018-05-04T05:53:46.235Z,8.70
2018-05-04T05:57:48.883Z,8.70
2018-05-04T06:01:51.403Z,8.90
2018-05-04T06:05:53.929Z,9.10
2018-05-04T06:09:57.202Z,9.60
2018-05-04T06:13:59.846Z,9.50
2018-05-04T06:18:02.352Z,9.70
2018-05-04T06:22:04.894Z,9.90
2018-05-04T06:26:08.351Z,10.10
2018-05-04T06:30:10.988Z,10.40
2018-05-04T06:34:13.518Z,10.50
2018-05-04T06:38:16.840Z,10.90
2018-05-04T06:42:20.129Z,12.20
2018-05-04T06:46:22.815Z,12.10
2018-05-04T06:50:25.343Z,13.40
2018-05-04T06:54:27.896Z,13.60
2018-05-04T06:58:31.348Z,13.80
2018-05-04T07:02:36.951Z,15.10
2018-05-04T07:06:39.465Z,17.10
2018-05-04T07:10:42.099Z,19.00
2018-05-04T07:14:45.375Z,21.30
2018-05-04T07:18:48.009Z,21.20
2018-05-04T07:22:51.297Z,22.20
2018-05-04T07:26:53.843Z,22.10
2018-05-04T07:30:56.365Z,22.30
2018-05-04T07:34:59.690Z,23.10
2018-05-04T07:39:02.970Z,23.80
2018-05-04T07:43:05.527Z,23.70
2018-05-04T07:47:08.140Z,23.90
2018-05-04T07:51:10.696Z,23.80
2018-05-04T07:55:13.301Z,24.80
2018-05-04T07:59:16.543Z,24.60
2018-05-04T08:03:19.824Z,24.20
2018-05-04T08:07:24.311Z,24.10
2018-05-04T08:11:26.849Z,24.70
2018-05-04T08:15:29.607Z,25.10
2018-05-04T08:19:32.115Z,25.00
2018-05-04T08:23:35.659Z,24.80
2018-05-04T08:27:38.172Z,24.90
2018-05-04T08:31:41.510Z,24.00
2018-05-04T08:35:44.803Z,23.90
2018-05-04T08:39:47.339Z,23.90
2018-05-04T08:43:49.883Z,23.80
2018-05-04T08:47:52.482Z,23.80
2018-05-04T08:51:55.008Z,24.00
2018-05-04T08:55:57.644Z,24.00
2018-05-04T09:00:00.191Z,24.20
2018-05-04T09:04:21.521Z,23.40
2018-05-04T09:08:31.104Z,23.40
2018-05-04T09:12:33.665Z,23.40
2018-05-04T09:16:36.182Z,23.00
2018-05-04T09:20:38.732Z,23.00
2018-05-04T09:24:41.258Z,23.10
2018-05-04T09:28:43.794Z,23.70
2018-05-04T09:32:46.374Z,24.30
2018-05-04T09:36:48.874Z,23.60
2018-05-04T09:40:51.399Z,23.60
2018-05-04T09:44:54.039Z,23.40
2018-05-04T09:48:57.464Z,23.80
2018-05-04T09:52:59.987Z,23.80
2018-05-04T09:57:02.506Z,23.30
2018-05-04T10:01:05.926Z,22.70
2018-05-04T10:05:08.500Z,22.60
2018-05-04T10:09:11.958Z,22.60
2018-05-04T10:13:14.486Z,22.50
2018-05-04T10:17:20.079Z,22.60
2018-05-04T10:21:28.123Z,22.20
2018-05-04T10:25:30.796Z,22.30
2018-05-04T10:29:33.315Z,22.00
2018-05-04T10:33:36.854Z,22.00
2018-05-04T10:37:39.379Z,22.10
2018-05-04T10:41:42.992Z,22.00
2018-05-04T10:45:48.454Z,21.80
2018-05-04T10:49:57.494Z,21.90
2018-05-04T10:54:00.935Z,21.80
2018-05-04T10:58:07.150Z,21.70
2018-05-04T11:02:09.668Z,22.00
2018-05-04T11:06:12.334Z,22.10
2018-05-04T11:10:14.856Z,21.90
2018-05-04T11:14:18.335Z,21.90
2018-05-04T11:18:20.867Z,21.90
2018-05-04T11:22:23.447Z,22.00
2018-05-04T11:26:25.968Z,22.10
2018-05-04T11:30:29.276Z,21.70
2018-05-04T11:34:31.819Z,21.60
2018-05-04T11:38:34.541Z,21.60
2018-05-04T11:42:38.092Z,21.40
2018-05-04T11:46:45.201Z,21.30
2018-05-04T11:50:47.723Z,21.50
2018-05-04T11:54:57.876Z,21.60
2018-05-04T11:59:04.250Z,21.60
2018-05-04T12:03:08.689Z,21.40
2018-05-04T12:07:14.327Z,21.40
2018-05-04T12:11:17.630Z,21.50
2018-05-04T12:15:20.144Z,21.40
2018-05-04T12:19:22.701Z,21.10
2018-05-04T12:23:25.224Z,21.20
2018-05-04T12:27:27.863Z,21.30
2018-05-04T12:31:30.370Z,21.30
2018-05-04T12:35:33.781Z,21.20
2018-05-04T12:39:42.708Z,21.10
2018-05-04T12:43:51.581Z,20.90
2018-05-04T12:47:54.100Z,20.60
2018-05-04T12:51:56.647Z,20.60
2018-05-04T12:55:59.154Z,20.80
2018-05-04T13:00:02.645Z,20.70
2018-05-04T13:04:05.168Z,20.70
2018-05-04T13:08:09.058Z,20.50
2018-05-04T13:12:11.583Z,20.40
2018-05-04T13:16:33.072Z,20.20
2018-05-04T13:20:35.611Z,20.00
2018-05-04T13:24:38.571Z,19.90
2018-05-04T13:28:49.720Z,20.00
2018-05-04T13:32:52.277Z,20.00
2018-05-04T13:36:54.812Z,20.00
2018-05-04T13:41:00.059Z,20.00
2018-05-04T13:45:03.352Z,20.00
2018-05-04T13:49:11.814Z,20.00
2018-05-04T13:53:16.375Z,20.10
2018-05-04T13:57:18.918Z,19.80
2018-05-04T14:01:22.390Z,19.90
2018-05-04T14:05:25.269Z,19.90
2018-05-04T14:09:27.787Z,19.70
2018-05-04T14:13:34.631Z,19.80
2018-05-04T14:17:37.138Z,19.90
2018-05-04T14:21:39.708Z,20.00
2018-05-04T14:25:43.238Z,19.90
2018-05-04T14:29:45.834Z,19.80
2018-05-04T14:33:48.343Z,19.80
2018-05-04T14:37:54.171Z,19.90
2018-05-04T14:41:57.655Z,20.00
2018-05-04T14:46:00.210Z,20.00
2018-05-04T14:50:02.721Z,20.20
2018-05-04T14:54:06.234Z,20.30
2018-05-04T14:58:08.750Z,20.30
2018-05-04T15:02:12.055Z,20.30
2018-05-04T15:06:14.579Z,20.30
2018-05-04T15:10:18.005Z,20.30
2018-05-04T15:14:21.294Z,20.30
2018-05-04T15:18:23.866Z,20.30
2018-05-04T15:22:26.382Z,20.30
2018-05-04T15:26:29.938Z,20.40
2018-05-04T15:30:32.459Z,20.40
2018-05-04T15:34:35.002Z,20.40
2018-05-04T15:38:39.602Z,20.40
2018-05-04T15:42:42.175Z,20.30
2018-05-04T15:46:44.700Z,20.10
2018-05-04T15:50:54.843Z,20.10
2018-05-04T15:54:57.398Z,20.10
2018-05-04T15:59:00.014Z,20.00
2018-05-04T16:03:02.545Z,20.00
2018-05-04T16:07:05.870Z,20.00
2018-05-04T16:11:08.403Z,20.00
2018-05-04T16:15:10.962Z,19.90
2018-05-04T16:19:13.474Z,19.90
2018-05-04T16:23:16.015Z,19.80
2018-05-04T16:27:18.535Z,20.00
2018-05-04T16:31:21.072Z,19.80
2018-05-04T16:35:23.654Z,19.70
2018-05-04T16:39:26.240Z,19.70
2018-05-04T16:43:28.779Z,19.70
2018-05-04T16:47:31.344Z,19.60
2018-05-04T16:51:33.860Z,19.50
2018-05-04T16:55:36.463Z,19.50
2018-05-04T16:59:38.974Z,19.40
2018-05-04T17:03:41.540Z,19.30
2018-05-04T17:07:45.845Z,19.20
2018-05-04T17:11:48.445Z,19.10
2018-05-04T17:15:51.033Z,19.10
2018-05-04T17:19:53.625Z,19.00
2018-05-04T17:23:56.192Z,19.00
2018-05-04T17:27:58.844Z,18.90
2018-05-04T17:32:01.362Z,18.90
2018-05-04T17:36:03.956Z,18.90
2018-05-04T17:40:08.559Z,18.90
2018-05-04T17:44:11.875Z,18.80
2018-05-04T17:48:14.419Z,18.80
2018-05-04T17:52:19.203Z,18.70
2018-05-04T17:56:21.750Z,18.60
2018-05-04T18:00:24.318Z,18.60
2018-05-04T18:04:26.859Z,18.50
2018-05-04T18:08:29.459Z,18.50
2018-05-04T18:12:35.063Z,18.30
2018-05-04T18:16:37.667Z,18.30
2018-05-04T18:20:40.271Z,18.20
2018-05-04T18:24:42.951Z,18.10
2018-05-04T18:28:45.570Z,18.10
2018-05-04T18:32:52.607Z,18.00
2018-05-04T18:36:59.137Z,17.90
2018-05-04T18:41:02.127Z,17.80
2018-05-04T18:45:05.524Z,17.60
2018-05-04T18:49:08.848Z,17.50
2018-05-04T18:53:12.180Z,17.50
2018-05-04T18:57:15.802Z,17.50
2018-05-04T19:01:19.298Z,17.40
2018-05-04T19:05:22.906Z,17.30
2018-05-04T19:09:26.222Z,17.20
2018-05-04T19:13:29.819Z,17.10
2018-05-04T19:17:36.703Z,17.10
2018-05-04T19:21:39.351Z,17.10
2018-05-04T19:25:48.330Z,17.00
2018-05-04T19:29:50.958Z,16.80
2018-05-04T19:33:53.482Z,16.80
2018-05-04T19:37:56.060Z,16.80
2018-05-04T19:42:00.579Z,16.70
2018-05-04T19:46:09.588Z,16.60
2018-05-04T19:50:20.682Z,16.40
2018-05-04T19:54:24.571Z,16.30
2018-05-04T19:58:33.699Z,16.20
2018-05-04T20:02:41.349Z,16.10
2018-05-04T20:06:44.867Z,16.10
2018-05-04T20:10:48.413Z,15.90
2018-05-04T20:14:50.922Z,15.70
2018-05-04T20:18:54.501Z,15.30
2018-05-04T20:23:03.137Z,15.30
2018-05-04T20:27:05.695Z,15.20
2018-05-04T20:31:08.203Z,15.10
2018-05-04T20:35:10.758Z,15.00
2018-05-04T20:39:13.282Z,14.90
2018-05-04T20:43:15.827Z,14.90
2018-05-04T20:47:18.335Z,15.00
2018-05-04T20:51:20.885Z,15.00
2018-05-04T20:55:23.398Z,15.20
2018-05-04T20:59:26.031Z,15.30
2018-05-04T21:03:28.559Z,15.30
2018-05-04T21:07:31.194Z,15.30
2018-05-04T21:11:34.606Z,15.30
2018-05-04T21:15:38.042Z,15.30
2018-05-04T21:19:40.563Z,15.20
2018-05-04T21:23:44.042Z,15.20
2018-05-04T21:27:46.563Z,15.20
2018-05-04T21:31:49.198Z,15.10
2018-05-04T21:35:51.724Z,15.00
2018-05-04T21:39:54.287Z,15.00
2018-05-04T21:43:57.591Z,14.90
2018-05-04T21:48:00.219Z,14.90
2018-05-04T21:52:03.506Z,14.90
2018-05-04T21:56:06.067Z,14.90
2018-05-04T22:00:08.594Z,14.80
2018-05-04T22:04:11.156Z,14.80
2018-05-04T22:08:14.439Z,14.80
2018-05-04T22:12:17.091Z,14.70
2018-05-04T22:16:20.385Z,14.60
2018-05-04T22:20:22.931Z,14.50
2018-05-04T22:24:32.205Z,14.50
2018-05-04T22:28:35.198Z,14.40
2018-05-04T22:32:42.567Z,14.30
2018-05-04T22:36:45.246Z,14.30
2018-05-04T22:40:47.764Z,14.30
2018-05-04T22:44:50.421Z,14.30
2018-05-04T22:48:52.939Z,14.20
2018-05-04T22:52:56.254Z,14.10
2018-05-04T22:56:58.786Z,14.10
2018-05-04T23:01:01.456Z,14.10
2018-05-04T23:05:20.761Z,14.10
2018-05-04T23:09:24.303Z,14.10
2018-05-04T23:13:27.614Z,13.80
2018-05-04T23:17:30.167Z,13.80
2018-05-04T23:21:32.727Z,13.70
2018-05-04T23:25:39.238Z,13.50
2018-05-04T23:29:41.778Z,13.40
2018-05-04T23:33:48.542Z,13.40
2018-05-04T23:37:54.603Z,13.50
2018-05-04T23:41:57.154Z,13.60
2018-05-04T23:46:04.778Z,13.50
2018-05-04T23:50:08.111Z,13.50
2018-05-04T23:54:15.972Z,13.50
2018-05-04T23:58:18.619Z,13.50
